createdAt,value
2018-12-22T00:00:27.408Z,99.70
2018-12-22T00:01:27.383Z,99.80
2018-12-22T00:02:27.389Z,99.39
2018-12-22T00:03:27.364Z,99.39
2018-12-22T00:04:27.353Z,98.46
2018-12-22T00:05:27.342Z,98.05
2018-12-22T00:06:27.330Z,98.25
2018-12-22T00:07:27.331Z,98.15
2018-12-22T00:08:27.307Z,98.36
2018-12-22T00:09:27.302Z,98.15
2018-12-22T00:10:27.305Z,97.64
2018-12-22T00:11:27.273Z,98.41
2018-12-22T00:12:27.297Z,98.41
2018-12-22T00:13:27.250Z,98.41
2018-12-22T00:14:27.242Z,98.86
2018-12-22T00:15:27.233Z,98.61
2018-12-22T00:16:27.218Z,98.30
2018-12-22T00:17:27.204Z,98.41
2018-12-22T00:18:27.237Z,98.20
2018-12-22T00:19:27.183Z,98.20
2018-12-22T00:20:27.173Z,98.41
2018-12-22T00:21:27.166Z,98.41
2018-12-22T00:22:27.151Z,98.30
2018-12-22T00:23:27.139Z,98.35
2018-12-22T00:24:27.143Z,98.97
2018-12-22T00:25:27.218Z,98.97
2018-12-22T00:26:27.105Z,99.17
2018-12-22T00:27:27.099Z,99.17
2018-12-22T00:28:27.106Z,99.38
2018-12-22T00:29:27.072Z,99.17
2018-12-22T00:30:27.061Z,98.66
2018-12-22T00:31:27.050Z,99.17
2018-12-22T00:32:27.039Z,98.76
2018-12-22T00:33:27.031Z,98.55
2018-12-22T00:34:27.036Z,98.41
2018-12-22T00:35:27.007Z,98.50
2018-12-22T00:36:26.998Z,98.41
2018-12-22T00:37:26.989Z,98.50
2018-12-22T00:38:26.974Z,98.55
2018-12-22T00:39:26.997Z,97.68
2018-12-22T00:40:26.954Z,96.96
2018-12-22T00:41:26.939Z,96.34
2018-12-22T00:42:26.927Z,96.55
2018-12-22T00:43:26.917Z,97.06
2018-12-22T00:44:26.904Z,96.14
2018-12-22T00:45:26.932Z,96.39
2018-12-22T00:46:26.883Z,95.93
2018-12-22T00:47:26.872Z,96.18
2018-12-22T00:48:26.861Z,96.91
2018-12-22T00:49:26.850Z,97.01
2018-12-22T00:50:26.840Z,96.84
2018-12-22T00:51:26.949Z,96.80
2018-12-22T00:52:26.816Z,97.56
2018-12-22T00:53:26.806Z,96.12
2018-12-22T00:54:26.794Z,96.49
2018-12-22T00:55:26.782Z,95.81
2018-12-22T00:56:26.774Z,95.71
2018-12-22T00:57:26.799Z,94.43
2018-12-22T00:58:30.659Z,95.81
2018-12-22T00:59:26.737Z,95.15
2018-12-22T01:00:26.728Z,95.71
2018-12-22T01:01:26.717Z,95.61
2018-12-22T01:02:26.706Z,95.71
2018-12-22T01:03:26.723Z,96.12
2018-12-22T01:04:26.684Z,95.50
2018-12-22T01:05:26.673Z,96.33
2018-12-22T01:06:26.661Z,96.53
2018-12-22T01:07:26.650Z,96.27
2018-12-22T01:08:26.638Z,96.06
2018-12-22T01:09:26.676Z,96.79
2018-12-22T01:10:26.617Z,96.79
2018-12-22T01:11:26.605Z,96.58
2018-12-22T01:12:26.595Z,96.27
2018-12-22T01:13:26.583Z,95.96
2018-12-22T01:14:26.577Z,95.96
2018-12-22T01:15:26.599Z,95.86
2018-12-22T01:16:26.550Z,96.37
2018-12-22T01:17:26.540Z,96.27
2018-12-22T01:18:26.527Z,96.69
2018-12-22T01:19:26.517Z,96.89
2018-12-22T01:20:26.503Z,96.27
2018-12-22T01:21:26.514Z,96.37
2018-12-22T01:22:26.483Z,96.58
2018-12-22T01:23:26.472Z,96.99
2018-12-22T01:24:26.461Z,96.69
2018-12-22T01:25:26.450Z,96.89
2018-12-22T01:26:26.461Z,96.62
2018-12-22T01:27:26.430Z,96.99
2018-12-22T01:28:26.423Z,96.48
2018-12-22T01:29:26.405Z,96.79
2018-12-22T01:30:26.392Z,96.62
2018-12-22T01:31:26.383Z,96.99
2018-12-22T01:32:26.384Z,96.94
2018-12-22T01:33:26.359Z,96.94
2018-12-22T01:34:26.352Z,97.66
2018-12-22T01:35:26.341Z,97.14
2018-12-22T01:36:26.334Z,97.76
2018-12-22T01:37:26.337Z,97.25
2018-12-22T01:38:26.307Z,97.14
2018-12-22T01:39:26.292Z,97.55
2018-12-22T01:40:26.281Z,97.76
2018-12-22T01:41:26.268Z,97.34
2018-12-22T01:42:26.265Z,97.14
2018-12-22T01:43:26.282Z,97.41
2018-12-22T01:44:26.339Z,96.69
2018-12-22T01:45:26.225Z,96.69
2018-12-22T01:46:26.214Z,97.30
2018-12-22T01:47:26.204Z,97.41
2018-12-22T01:48:26.199Z,96.99
2018-12-22T01:49:26.574Z,96.69
2018-12-22T01:50:26.169Z,96.48
2018-12-22T01:51:26.158Z,97.05
2018-12-22T01:52:26.147Z,97.09
2018-12-22T01:53:26.136Z,96.27
2018-12-22T01:54:26.128Z,96.79
2018-12-22T01:55:26.143Z,97.41
2018-12-22T01:56:26.107Z,97.41
2018-12-22T01:57:26.095Z,96.79
2018-12-22T01:58:26.083Z,95.71
2018-12-22T01:59:26.068Z,96.27
2018-12-22T02:00:26.058Z,97.09
2018-12-22T02:01:26.084Z,96.64
2018-12-22T02:02:26.034Z,96.37
2018-12-22T02:03:26.025Z,96.64
2018-12-22T02:04:26.014Z,96.06
2018-12-22T02:05:26.004Z,96.27
2018-12-22T02:06:25.998Z,96.06
2018-12-22T02:07:26.009Z,96.79
2018-12-22T02:08:25.969Z,96.79
2018-12-22T02:09:25.961Z,96.27
2018-12-22T02:10:25.949Z,96.99
2018-12-22T02:11:25.934Z,96.17
2018-12-22T02:12:25.923Z,96.37
2018-12-22T02:13:26.038Z,95.96
2018-12-22T02:14:25.908Z,95.24
2018-12-22T02:15:25.890Z,95.86
2018-12-22T02:16:25.879Z,95.03
2018-12-22T02:17:25.868Z,95.34
2018-12-22T02:18:25.856Z,94.42
2018-12-22T02:19:25.866Z,94.72
2018-12-22T02:20:25.837Z,94.52
2018-12-22T02:21:25.823Z,94.82
2018-12-22T02:22:25.812Z,94.00
2018-12-22T02:23:25.800Z,94.82
2018-12-22T02:24:25.788Z,94.00
2018-12-22T02:25:25.789Z,94.82
2018-12-22T02:26:25.770Z,94.82
2018-12-22T02:27:25.759Z,94.31
2018-12-22T02:28:25.746Z,94.67
2018-12-22T02:29:25.736Z,94.82
2018-12-22T02:30:25.738Z,95.49
2018-12-22T02:31:25.713Z,95.39
2018-12-22T02:32:25.700Z,94.77
2018-12-22T02:33:25.693Z,93.90
2018-12-22T02:34:25.678Z,94.72
2018-12-22T02:35:25.702Z,94.62
2018-12-22T02:36:25.657Z,95.39
2018-12-22T02:37:25.647Z,94.87
2018-12-22T02:38:25.634Z,95.49
2018-12-22T02:39:25.629Z,94.46
2018-12-22T02:40:25.610Z,95.39
2018-12-22T02:41:25.632Z,95.28
2018-12-22T02:42:25.590Z,95.53
2018-12-22T02:43:25.577Z,96.88
2018-12-22T02:44:25.569Z,96.36
2018-12-22T02:45:25.656Z,96.26
2018-12-22T02:46:25.544Z,96.67
2018-12-22T02:47:25.556Z,96.15
2018-12-22T02:48:25.520Z,96.47
2018-12-22T02:49:25.511Z,96.01
2018-12-22T02:50:25.499Z,95.70
2018-12-22T02:51:25.493Z,95.90
2018-12-22T02:52:25.482Z,96.01
2018-12-22T02:53:25.487Z,96.01
2018-12-22T02:54:25.457Z,96.21
2018-12-22T02:55:25.444Z,96.01
2018-12-22T02:56:25.433Z,95.90
2018-12-22T02:57:25.422Z,96.42
2018-12-22T02:58:25.415Z,96.01
2018-12-22T02:59:25.443Z,95.95
2018-12-22T03:00:25.388Z,96.05
2018-12-22T03:01:25.377Z,96.05
2018-12-22T03:02:25.365Z,96.26
2018-12-22T03:03:25.355Z,96.21
2018-12-22T03:04:25.342Z,96.47
2018-12-22T03:05:25.353Z,95.80
2018-12-22T03:06:25.363Z,95.90
2018-12-22T03:07:25.311Z,96.83
2018-12-22T03:08:25.299Z,96.47
2018-12-22T03:09:25.334Z,97.08
2018-12-22T03:10:25.275Z,96.62
2018-12-22T03:11:25.266Z,96.05
2018-12-22T03:12:25.292Z,96.88
2018-12-22T03:13:25.251Z,97.08
2018-12-22T03:14:25.231Z,95.80
2018-12-22T03:15:25.220Z,95.70
2018-12-22T03:16:25.208Z,95.90
2018-12-22T03:17:25.199Z,95.49
2018-12-22T03:18:25.217Z,95.39
2018-12-22T03:19:25.181Z,95.24
2018-12-22T03:20:25.165Z,95.90
2018-12-22T03:21:25.152Z,96.31
2018-12-22T03:22:25.140Z,95.07
2018-12-22T03:23:25.130Z,95.28
2018-12-22T03:24:25.143Z,95.07
2018-12-22T03:25:25.117Z,94.72
2018-12-22T03:26:25.097Z,94.93
2018-12-22T03:27:25.087Z,95.24
2018-12-22T03:28:25.075Z,95.03
2018-12-22T03:29:25.064Z,95.55
2018-12-22T03:30:25.068Z,95.80
2018-12-22T03:31:25.053Z,95.96
2018-12-22T03:32:25.035Z,94.82
2018-12-22T03:33:25.019Z,95.55
2018-12-22T03:34:25.015Z,95.03
2018-12-22T03:35:24.997Z,96.31
2018-12-22T03:36:25.013Z,96.27
2018-12-22T03:37:24.977Z,95.49
2018-12-22T03:38:24.972Z,95.59
2018-12-22T03:39:24.952Z,96.37
2018-12-22T03:40:24.945Z,96.27
2018-12-22T03:41:24.932Z,96.52
2018-12-22T03:42:24.932Z,96.89
2018-12-22T03:43:24.910Z,95.65
2018-12-22T03:44:24.904Z,95.65
2018-12-22T03:45:24.884Z,94.93
2018-12-22T03:46:24.871Z,95.76
2018-12-22T03:47:24.909Z,94.82
2018-12-22T03:48:24.851Z,95.14
2018-12-22T03:49:24.840Z,95.76
2018-12-22T03:50:24.832Z,96.27
2018-12-22T03:51:24.816Z,96.58
2018-12-22T03:52:24.807Z,96.06
2018-12-22T03:53:24.808Z,96.79
2018-12-22T03:54:24.784Z,95.86
2018-12-22T03:55:24.785Z,96.58
2018-12-22T03:56:24.769Z,95.65
2018-12-22T03:57:24.751Z,96.17
2018-12-22T03:58:24.739Z,96.06
2018-12-22T03:59:25.353Z,96.17
2018-12-22T04:00:24.750Z,96.58
2018-12-22T04:01:24.707Z,96.37
2018-12-22T04:02:24.700Z,95.96
2018-12-22T04:03:24.682Z,95.86
2018-12-22T04:04:24.671Z,95.96
2018-12-22T04:05:24.664Z,95.76
2018-12-22T04:06:24.685Z,96.06
2018-12-22T04:07:24.638Z,95.65
2018-12-22T04:08:24.637Z,96.58
2018-12-22T04:09:24.617Z,96.48
2018-12-22T04:10:24.606Z,96.58
2018-12-22T04:11:24.595Z,96.69
2018-12-22T04:12:24.709Z,96.37
2018-12-22T04:13:24.570Z,96.17
2018-12-22T04:14:24.565Z,96.69
2018-12-22T04:15:24.560Z,96.89
2018-12-22T04:16:24.538Z,96.31
2018-12-22T04:17:24.524Z,96.48
2018-12-22T04:18:24.515Z,96.69
2018-12-22T04:19:24.527Z,96.58
2018-12-22T04:20:24.500Z,97.30
2018-12-22T04:21:24.485Z,97.20
2018-12-22T04:22:24.470Z,97.09
2018-12-22T04:23:24.461Z,96.89
2018-12-22T04:24:24.445Z,96.48
2018-12-22T04:25:24.469Z,96.06
2018-12-22T04:26:24.429Z,96.69
2018-12-22T04:27:24.412Z,97.20
2018-12-22T04:28:24.400Z,97.72
2018-12-22T04:29:33.608Z,98.02
2018-12-22T04:30:25.390Z,97.51
2018-12-22T04:31:24.369Z,97.09
2018-12-22T04:32:24.382Z,97.09
2018-12-22T04:33:24.345Z,96.99
2018-12-22T04:34:24.335Z,96.89
2018-12-22T04:35:24.323Z,95.65
2018-12-22T04:36:24.310Z,96.17
2018-12-22T04:37:24.299Z,96.79
2018-12-22T04:38:24.323Z,96.58
2018-12-22T04:39:24.276Z,96.48
2018-12-22T04:40:24.267Z,96.48
2018-12-22T04:41:24.256Z,96.58
2018-12-22T04:42:24.246Z,96.99
2018-12-22T04:43:24.231Z,96.99
2018-12-22T04:44:24.261Z,96.79
2018-12-22T04:45:24.215Z,96.69
2018-12-22T04:46:24.200Z,96.69
2018-12-22T04:47:24.188Z,96.58
2018-12-22T04:48:24.177Z,96.99
2018-12-22T04:49:24.166Z,97.20
2018-12-22T04:50:24.193Z,97.30
2018-12-22T04:51:24.142Z,97.20
2018-12-22T04:52:24.130Z,96.89
2018-12-22T04:53:24.119Z,97.41
2018-12-22T04:54:24.111Z,96.89
2018-12-22T04:55:24.096Z,97.72
2018-12-22T04:56:24.125Z,97.72
2018-12-22T04:57:24.079Z,97.61
2018-12-22T04:58:24.063Z,97.41
2018-12-22T04:59:24.054Z,97.20
2018-12-22T05:00:24.041Z,97.61
2018-12-22T05:01:24.029Z,97.66
2018-12-22T05:02:24.032Z,97.51
2018-12-22T05:03:24.013Z,97.61
2018-12-22T05:04:23.997Z,97.72
2018-12-22T05:05:23.984Z,97.51
2018-12-22T05:06:23.987Z,97.30
2018-12-22T05:07:23.968Z,97.09
2018-12-22T05:08:23.953Z,97.72
2018-12-22T05:09:24.041Z,97.92
2018-12-22T05:10:23.934Z,97.82
2018-12-22T05:11:23.918Z,97.72
2018-12-22T05:12:23.918Z,98.33
2018-12-22T05:13:23.897Z,97.92
2018-12-22T05:14:23.883Z,97.30
2018-12-22T05:15:23.873Z,98.13
2018-12-22T05:16:23.881Z,98.44
2018-12-22T05:17:23.865Z,98.33
2018-12-22T05:18:23.838Z,98.44
2018-12-22T05:19:23.828Z,98.33
2018-12-22T05:20:23.818Z,98.69
2018-12-22T05:21:23.805Z,98.44
2018-12-22T05:22:23.810Z,98.75
2018-12-22T05:23:23.818Z,98.65
2018-12-22T05:24:23.772Z,99.16
2018-12-22T05:25:23.761Z,99.31
2018-12-22T05:26:23.748Z,99.72
2018-12-22T05:27:23.739Z,99.47
2018-12-22T05:28:23.726Z,99.99
2018-12-22T05:29:23.763Z,99.99
2018-12-22T05:30:23.704Z,99.99
2018-12-22T05:31:23.693Z,99.99
2018-12-22T05:32:23.682Z,99.99
2018-12-22T05:33:23.670Z,99.99
2018-12-22T05:34:23.662Z,99.99
2018-12-22T05:35:23.664Z,99.99
2018-12-22T05:36:23.637Z,99.99
2018-12-22T05:37:23.625Z,99.99
2018-12-22T05:38:23.614Z,99.99
2018-12-22T05:39:23.603Z,99.99
2018-12-22T05:40:23.623Z,99.99
2018-12-22T05:41:23.590Z,99.99
2018-12-22T05:42:23.568Z,99.99
2018-12-22T05:43:23.557Z,99.99
2018-12-22T05:44:23.545Z,99.99
2018-12-22T05:45:23.534Z,99.99
2018-12-22T05:46:23.547Z,99.99
2018-12-22T05:47:23.518Z,99.99
2018-12-22T05:48:23.502Z,99.99
2018-12-22T05:49:23.491Z,99.99
2018-12-22T05:50:23.480Z,99.99
2018-12-22T05:51:23.468Z,99.99
2018-12-22T05:52:23.478Z,99.99
2018-12-22T05:53:23.451Z,99.99
2018-12-22T05:54:23.546Z,99.99
2018-12-22T05:55:23.423Z,99.99
2018-12-22T05:56:23.413Z,99.99
2018-12-22T05:57:23.399Z,99.99
2018-12-22T05:58:23.423Z,99.99
2018-12-22T05:59:23.384Z,99.99
2018-12-22T06:00:23.367Z,99.99
2018-12-22T06:01:23.356Z,99.99
2018-12-22T06:02:23.345Z,99.99
2018-12-22T06:03:23.333Z,99.99
2018-12-22T06:04:23.336Z,99.99
2018-12-22T06:05:23.318Z,99.99
2018-12-22T06:06:23.300Z,99.99
2018-12-22T06:07:23.287Z,99.99
2018-12-22T06:08:23.312Z,99.99
2018-12-22T06:09:23.265Z,99.99
2018-12-22T06:10:23.254Z,99.99
2018-12-22T06:11:23.250Z,99.99
2018-12-22T06:12:23.239Z,99.99
2018-12-22T06:13:23.221Z,99.99
2018-12-22T06:14:23.235Z,99.99
2018-12-22T06:15:23.200Z,99.99
2018-12-22T06:16:23.192Z,99.99
2018-12-22T06:17:23.176Z,99.99
2018-12-22T06:18:23.168Z,99.99
2018-12-22T06:19:23.154Z,99.99
2018-12-22T06:20:23.166Z,99.99
2018-12-22T06:21:23.131Z,99.99
2018-12-22T06:22:23.123Z,99.99
2018-12-22T06:23:23.108Z,99.99
2018-12-22T06:24:23.104Z,99.99
2018-12-22T06:25:23.090Z,99.99
2018-12-22T06:26:23.098Z,99.99
2018-12-22T06:27:23.065Z,99.99
2018-12-22T06:28:23.053Z,99.99
2018-12-22T06:29:23.042Z,99.99
2018-12-22T06:30:23.043Z,99.99
2018-12-22T06:31:23.018Z,99.99
2018-12-22T06:32:23.021Z,99.99
2018-12-22T06:33:22.996Z,99.99
2018-12-22T06:34:22.984Z,99.99
2018-12-22T06:35:22.973Z,99.99
2018-12-22T06:36:22.972Z,99.99
2018-12-22T06:37:22.984Z,99.99
2018-12-22T06:38:22.941Z,99.99
2018-12-22T06:39:22.928Z,99.99
2018-12-22T06:40:22.918Z,99.99
2018-12-22T06:41:22.908Z,99.99
2018-12-22T06:42:22.906Z,99.99
2018-12-22T06:43:22.897Z,99.99
2018-12-22T06:44:22.896Z,99.99
2018-12-22T06:45:22.861Z,99.99
2018-12-22T06:46:22.851Z,99.99
2018-12-22T06:47:22.841Z,99.99
2018-12-22T06:48:22.834Z,99.99
2018-12-22T06:49:22.817Z,99.99
2018-12-22T06:50:22.817Z,99.99
2018-12-22T06:51:22.795Z,99.99
2018-12-22T06:52:22.784Z,99.99
2018-12-22T06:53:22.772Z,99.99
2018-12-22T06:54:22.782Z,99.99
2018-12-22T06:55:22.749Z,99.99
2018-12-22T06:56:22.773Z,99.99
2018-12-22T06:57:22.727Z,99.99
2018-12-22T06:58:22.718Z,99.99
2018-12-22T06:59:22.705Z,99.99
2018-12-22T07:00:22.697Z,99.99
2018-12-22T07:01:22.681Z,99.99
2018-12-22T07:02:22.689Z,99.99
2018-12-22T07:03:22.662Z,99.99
2018-12-22T07:04:22.689Z,99.99
2018-12-22T07:05:22.639Z,99.99
2018-12-22T07:06:22.632Z,99.99
2018-12-22T07:07:22.614Z,99.99
2018-12-22T07:08:22.605Z,99.99
2018-12-22T07:09:22.593Z,99.99
2018-12-22T07:10:22.629Z,99.99
2018-12-22T07:11:22.571Z,99.99
2018-12-22T07:12:22.560Z,99.99
2018-12-22T07:13:22.548Z,99.99
2018-12-22T07:14:22.536Z,99.99
2018-12-22T07:15:22.527Z,99.99
2018-12-22T07:16:22.527Z,99.99
2018-12-22T07:17:22.505Z,99.99
2018-12-22T07:18:22.497Z,99.99
2018-12-22T07:19:22.484Z,99.99
2018-12-22T07:20:22.475Z,99.99
2018-12-22T07:21:22.469Z,99.99
2018-12-22T07:22:23.473Z,99.99
2018-12-22T07:23:22.448Z,99.99
2018-12-22T07:24:22.424Z,99.99
2018-12-22T07:25:22.416Z,99.99
2018-12-22T07:26:22.406Z,99.99
2018-12-22T07:27:22.402Z,99.99
2018-12-22T07:28:22.379Z,99.99
2018-12-22T07:29:22.368Z,99.99
2018-12-22T07:30:26.052Z,99.99
2018-12-22T07:31:22.345Z,99.99
2018-12-22T07:32:22.342Z,99.99
2018-12-22T07:33:22.323Z,99.99
2018-12-22T07:34:22.312Z,99.99
2018-12-22T07:35:22.301Z,99.99
2018-12-22T07:36:22.302Z,99.99
2018-12-22T07:37:22.281Z,99.99
2018-12-22T07:38:22.297Z,99.99
2018-12-22T07:39:22.257Z,99.99
2018-12-22T07:40:22.246Z,99.99
2018-12-22T07:41:22.233Z,99.99
2018-12-22T07:42:22.223Z,99.99
2018-12-22T07:43:22.211Z,99.99
2018-12-22T07:44:22.235Z,99.99
2018-12-22T07:45:22.188Z,99.99
2018-12-22T07:46:22.178Z,99.99
2018-12-22T07:47:22.169Z,99.99
2018-12-22T07:48:22.154Z,99.99
2018-12-22T07:49:22.145Z,99.99
2018-12-22T07:50:22.151Z,99.99
2018-12-22T07:51:22.122Z,99.99
2018-12-22T07:52:22.110Z,99.99
2018-12-22T07:53:22.128Z,99.99
2018-12-22T07:54:22.087Z,99.99
2018-12-22T07:55:22.075Z,99.99
2018-12-22T07:56:22.072Z,99.99
2018-12-22T07:57:22.055Z,99.99
2018-12-22T07:58:22.043Z,99.99
2018-12-22T07:59:22.054Z,99.99
2018-12-22T08:00:22.020Z,99.99
2018-12-22T08:01:22.010Z,99.99
2018-12-22T08:02:22.000Z,99.99
2018-12-22T08:03:21.987Z,99.99
2018-12-22T08:04:21.975Z,99.99
2018-12-22T08:05:21.976Z,99.99
2018-12-22T08:06:21.955Z,99.99
2018-12-22T08:07:21.944Z,99.99
2018-12-22T08:08:23.696Z,99.99
2018-12-22T08:09:21.920Z,99.99
2018-12-22T08:10:21.908Z,99.99
2018-12-22T08:11:21.896Z,99.99
2018-12-22T08:12:21.886Z,99.99
2018-12-22T08:13:21.875Z,99.99
2018-12-22T08:14:21.901Z,99.99
2018-12-22T08:15:21.851Z,99.99
2018-12-22T08:16:21.841Z,99.99
2018-12-22T08:17:21.828Z,99.99
2018-12-22T08:18:21.818Z,99.99
2018-12-22T08:19:21.808Z,99.99
2018-12-22T08:20:21.840Z,99.99
2018-12-22T08:21:21.784Z,99.99
2018-12-22T08:22:21.773Z,99.99
2018-12-22T08:23:21.763Z,99.99
2018-12-22T08:24:21.752Z,99.99
2018-12-22T08:25:21.740Z,99.99
2018-12-22T08:26:21.756Z,99.99
2018-12-22T08:27:21.725Z,99.99
2018-12-22T08:28:21.707Z,99.99
2018-12-22T08:29:21.695Z,99.99
2018-12-22T08:30:21.684Z,99.99
2018-12-22T08:31:23.089Z,99.99
2018-12-22T08:32:21.694Z,99.99
2018-12-22T08:33:21.655Z,99.99
2018-12-22T08:34:21.638Z,99.99
2018-12-22T08:35:21.626Z,99.99
2018-12-22T08:36:21.616Z,99.99
2018-12-22T08:37:21.606Z,99.99
2018-12-22T08:38:21.628Z,99.99
2018-12-22T08:39:21.588Z,99.99
2018-12-22T08:40:21.572Z,99.99
2018-12-22T08:41:21.561Z,99.99
2018-12-22T08:42:21.548Z,99.99
2018-12-22T08:43:21.538Z,99.99
2018-12-22T08:44:21.558Z,99.99
2018-12-22T08:45:21.521Z,99.99
2018-12-22T08:46:21.504Z,99.99
2018-12-22T08:47:21.493Z,99.99
2018-12-22T08:48:21.482Z,99.99
2018-12-22T08:49:21.478Z,99.99
2018-12-22T08:50:21.472Z,99.99
2018-12-22T08:51:21.477Z,99.99
2018-12-22T08:52:21.438Z,99.99
2018-12-22T08:53:21.425Z,99.99
2018-12-22T08:54:21.415Z,99.99
2018-12-22T08:55:21.403Z,99.99
2018-12-22T08:56:21.392Z,99.99
2018-12-22T08:57:21.499Z,99.99
2018-12-22T08:58:21.380Z,99.99
2018-12-22T08:59:21.358Z,99.99
2018-12-22T09:00:21.347Z,99.99
2018-12-22T09:01:21.335Z,99.99
2018-12-22T09:02:21.353Z,99.99
2018-12-22T09:03:21.321Z,99.99
2018-12-22T09:04:21.302Z,99.99
2018-12-22T09:05:21.291Z,99.99
2018-12-22T09:06:21.277Z,99.99
2018-12-22T09:07:21.268Z,99.99
2018-12-22T09:08:21.280Z,99.99
2018-12-22T09:09:21.252Z,99.99
2018-12-22T09:10:21.236Z,99.99
2018-12-22T09:11:21.223Z,99.99
2018-12-22T09:12:21.210Z,99.99
2018-12-22T09:13:21.224Z,99.99
2018-12-22T09:14:21.213Z,99.99
2018-12-22T09:15:21.178Z,99.99
2018-12-22T09:16:21.168Z,99.99
2018-12-22T09:17:21.154Z,99.99
2018-12-22T09:18:21.149Z,99.99
2018-12-22T09:19:21.133Z,99.99
2018-12-22T09:20:21.156Z,99.99
2018-12-22T09:21:21.111Z,99.99
2018-12-22T09:22:21.100Z,99.99
2018-12-22T09:23:21.087Z,99.99
2018-12-22T09:24:21.082Z,99.99
2018-12-22T09:25:21.067Z,99.99
2018-12-22T09:26:21.087Z,99.99
2018-12-22T09:27:21.043Z,99.99
2018-12-22T09:28:21.033Z,99.99
2018-12-22T09:29:21.020Z,99.99
2018-12-22T09:30:21.016Z,99.99
2018-12-22T09:31:21.004Z,99.99
2018-12-22T09:32:21.007Z,99.99
2018-12-22T09:33:20.978Z,99.99
2018-12-22T09:34:20.967Z,99.99
2018-12-22T09:35:20.951Z,99.99
2018-12-22T09:36:20.944Z,99.99
2018-12-22T09:37:20.930Z,99.99
2018-12-22T09:38:20.957Z,99.99
2018-12-22T09:39:20.911Z,99.99
2018-12-22T09:40:20.896Z,99.99
2018-12-22T09:41:20.885Z,99.99
2018-12-22T09:42:20.886Z,99.99
2018-12-22T09:43:20.867Z,99.99
2018-12-22T09:44:20.893Z,99.99
2018-12-22T09:45:20.842Z,99.99
2018-12-22T09:46:20.828Z,99.99
2018-12-22T09:47:20.818Z,99.99
2018-12-22T09:48:20.810Z,99.99
2018-12-22T09:49:20.795Z,99.99
2018-12-22T09:50:20.816Z,99.99
2018-12-22T09:51:20.775Z,99.99
2018-12-22T09:52:20.763Z,99.99
2018-12-22T09:53:20.750Z,99.99
2018-12-22T09:54:20.748Z,99.99
2018-12-22T09:55:20.729Z,99.99
2018-12-22T09:56:20.731Z,99.99
2018-12-22T09:57:20.706Z,99.99
2018-12-22T09:58:20.707Z,99.99
2018-12-22T09:59:20.682Z,99.99
2018-12-22T10:00:20.680Z,99.99
2018-12-22T10:01:20.660Z,99.99
2018-12-22T10:02:20.650Z,99.99
2018-12-22T10:03:20.673Z,99.99
2018-12-22T10:04:20.628Z,99.99
2018-12-22T10:05:20.616Z,99.99
2018-12-22T10:06:20.607Z,99.99
2018-12-22T10:07:20.593Z,99.99
2018-12-22T10:08:20.582Z,99.99
2018-12-22T10:09:20.593Z,99.99
2018-12-22T10:10:20.560Z,99.99
2018-12-22T10:11:20.553Z,99.99
2018-12-22T10:12:20.539Z,99.99
2018-12-22T10:13:20.534Z,99.99
2018-12-22T10:14:20.514Z,99.99
2018-12-22T10:15:20.524Z,99.99
2018-12-22T10:16:20.491Z,99.99
2018-12-22T10:17:20.480Z,99.99
2018-12-22T10:18:20.477Z,99.99
2018-12-22T10:19:20.458Z,99.99
2018-12-22T10:20:20.446Z,99.99
2018-12-22T10:21:20.471Z,99.99
2018-12-22T10:22:20.424Z,99.99
2018-12-22T10:23:20.415Z,99.99
2018-12-22T10:24:20.407Z,99.99
2018-12-22T10:25:20.394Z,99.99
2018-12-22T10:26:20.378Z,99.99
2018-12-22T10:27:22.477Z,99.99
2018-12-22T10:28:20.356Z,99.99
2018-12-22T10:29:20.347Z,99.99
2018-12-22T10:30:20.340Z,99.99
2018-12-22T10:31:20.322Z,99.99
2018-12-22T10:32:20.319Z,99.99
2018-12-22T10:33:20.312Z,99.99
2018-12-22T10:34:20.290Z,99.99
2018-12-22T10:35:20.279Z,99.99
2018-12-22T10:36:20.306Z,99.99
2018-12-22T10:37:20.258Z,99.99
2018-12-22T10:38:20.243Z,99.99
2018-12-22T10:39:20.232Z,99.99
2018-12-22T10:40:20.223Z,99.99
2018-12-22T10:41:20.212Z,99.99
2018-12-22T10:42:20.231Z,99.99
2018-12-22T10:43:20.194Z,99.99
2018-12-22T10:44:20.178Z,99.99
2018-12-22T10:45:20.165Z,99.99
2018-12-22T10:46:20.155Z,99.99
2018-12-22T10:47:20.145Z,99.99
2018-12-22T10:48:20.170Z,99.99
2018-12-22T10:49:20.126Z,99.99
2018-12-22T10:50:20.110Z,99.99
2018-12-22T10:51:24.272Z,99.99
2018-12-22T10:52:20.086Z,99.99
2018-12-22T10:53:20.076Z,99.99
2018-12-22T10:54:20.095Z,99.99
2018-12-22T10:55:20.061Z,99.99
2018-12-22T10:56:20.043Z,99.99
2018-12-22T10:57:20.032Z,99.99
2018-12-22T10:58:20.021Z,99.99
2018-12-22T10:59:20.009Z,99.99
2018-12-22T11:00:20.020Z,99.99
2018-12-22T11:01:26.357Z,99.99
2018-12-22T11:02:20.974Z,99.99
2018-12-22T11:03:19.964Z,99.99
2018-12-22T11:04:19.955Z,99.99
2018-12-22T11:05:19.940Z,99.99
2018-12-22T11:06:19.971Z,99.99
2018-12-22T11:07:19.929Z,99.99
2018-12-22T11:08:19.907Z,99.99
2018-12-22T11:09:19.896Z,99.99
2018-12-22T11:10:19.887Z,99.99
2018-12-22T11:11:19.874Z,99.99
2018-12-22T11:12:19.884Z,99.99
2018-12-22T11:13:19.878Z,99.99
2018-12-22T11:14:19.860Z,99.99
2018-12-22T11:15:19.828Z,99.99
2018-12-22T11:16:19.824Z,99.99
2018-12-22T11:17:19.807Z,99.99
2018-12-22T11:18:19.793Z,99.99
2018-12-22T11:19:19.827Z,99.99
2018-12-22T11:20:19.772Z,99.99
2018-12-22T11:21:19.761Z,99.99
2018-12-22T11:22:19.749Z,99.99
2018-12-22T11:23:20.538Z,99.99
2018-12-22T11:24:19.727Z,99.99
2018-12-22T11:25:19.743Z,99.99
2018-12-22T11:26:19.705Z,99.99
2018-12-22T11:27:19.714Z,99.99
2018-12-22T11:28:19.681Z,99.99
2018-12-22T11:29:19.671Z,99.99
2018-12-22T11:30:19.679Z,99.99
2018-12-22T11:31:19.651Z,99.99
2018-12-22T11:32:19.636Z,99.99
2018-12-22T11:33:19.627Z,99.99
2018-12-22T11:34:19.614Z,99.99
2018-12-22T11:35:19.624Z,99.99
2018-12-22T11:36:19.591Z,99.99
2018-12-22T11:37:19.584Z,99.99
2018-12-22T11:38:19.589Z,99.99
2018-12-22T11:39:19.558Z,99.99
2018-12-22T11:40:19.578Z,99.99
2018-12-22T11:41:19.535Z,99.99
2018-12-22T11:42:19.523Z,99.99
2018-12-22T11:43:19.518Z,99.99
2018-12-22T11:44:19.502Z,99.99
2018-12-22T11:45:19.492Z,99.99
2018-12-22T11:46:19.499Z,99.99
2018-12-22T11:47:19.467Z,99.99
2018-12-22T11:48:19.457Z,99.99
2018-12-22T11:49:19.449Z,99.99
2018-12-22T11:50:19.434Z,99.99
2018-12-22T11:51:19.442Z,99.99
2018-12-22T11:52:19.415Z,99.99
2018-12-22T11:53:19.401Z,99.99
2018-12-22T11:54:19.390Z,99.99
2018-12-22T11:55:19.421Z,99.99
2018-12-22T11:56:19.366Z,99.99
2018-12-22T11:57:19.359Z,99.99
2018-12-22T11:58:19.344Z,99.99
2018-12-22T11:59:19.333Z,99.99
2018-12-22T12:00:19.323Z,99.99
2018-12-22T12:01:19.335Z,99.99
2018-12-22T12:02:19.301Z,99.99
2018-12-22T12:03:19.291Z,99.99
2018-12-22T12:04:19.278Z,99.99
2018-12-22T12:05:19.269Z,99.99
2018-12-22T12:06:19.293Z,99.99
2018-12-22T12:07:19.249Z,99.99
2018-12-22T12:08:19.235Z,99.99
2018-12-22T12:09:19.222Z,99.99
2018-12-22T12:10:19.209Z,99.99
2018-12-22T12:11:19.200Z,99.99
2018-12-22T12:12:19.263Z,99.99
2018-12-22T12:13:19.188Z,99.99
2018-12-22T12:14:19.170Z,99.99
2018-12-22T12:15:19.155Z,99.99
2018-12-22T12:16:19.147Z,99.99
2018-12-22T12:17:19.132Z,99.99
2018-12-22T12:18:19.142Z,99.99
2018-12-22T12:19:19.115Z,99.99
2018-12-22T12:20:19.097Z,99.99
2018-12-22T12:21:19.086Z,99.99
2018-12-22T12:22:19.119Z,99.99
2018-12-22T12:23:19.065Z,99.99
2018-12-22T12:24:19.054Z,99.99
2018-12-22T12:25:19.048Z,99.99
2018-12-22T12:26:19.032Z,99.99
2018-12-22T12:27:19.021Z,99.99
2018-12-22T12:28:19.027Z,99.99
2018-12-22T12:29:19.019Z,99.99
2018-12-22T12:30:18.986Z,99.99
2018-12-22T12:31:18.981Z,99.99
2018-12-22T12:32:19.006Z,99.99
2018-12-22T12:33:18.953Z,99.99
2018-12-22T12:34:18.942Z,99.99
2018-12-22T12:35:18.931Z,99.99
2018-12-22T12:36:18.920Z,99.99
2018-12-22T12:37:18.910Z,99.99
2018-12-22T12:38:18.924Z,99.99
2018-12-22T12:39:18.891Z,99.99
2018-12-22T12:40:18.876Z,99.99
2018-12-22T12:41:18.903Z,99.99
2018-12-22T12:42:18.856Z,99.99
2018-12-22T12:43:18.861Z,99.99
2018-12-22T12:44:18.861Z,99.99
2018-12-22T12:45:18.817Z,99.99
2018-12-22T12:46:18.807Z,99.99
2018-12-22T12:47:18.796Z,99.99
2018-12-22T12:48:18.785Z,99.99
2018-12-22T12:49:18.797Z,99.99
2018-12-22T12:50:18.763Z,99.99
2018-12-22T12:51:18.752Z,99.99
2018-12-22T12:52:18.770Z,99.99